createdAt,value
2023-05-23T00:00:02.498Z,76.82
2023-05-23T00:01:02.476Z,76.42
2023-05-23T00:02:02.483Z,76.72
2023-05-23T00:03:02.719Z,76.52
2023-05-23T00:04:02.576Z,76.42
2023-05-23T00:05:02.549Z,76.92
2023-05-23T00:06:02.416Z,77.32
2023-05-23T00:07:02.448Z,77.02
2023-05-23T00:08:02.460Z,76.62
2023-05-23T00:09:02.398Z,76.72
2023-05-23T00:10:02.401Z,76.32
2023-05-23T00:11:02.385Z,77.02
2023-05-23T00:12:02.360Z,76.72
2023-05-23T00:13:02.406Z,76.52
2023-05-23T00:14:02.333Z,76.42
2023-05-23T00:15:02.354Z,77.52
2023-05-23T00:16:02.331Z,77.52
2023-05-23T00:17:02.429Z,76.32
2023-05-23T00:18:02.384Z,75.92
2023-05-23T00:19:02.376Z,75.51
2023-05-23T00:20:02.260Z,75.31
2023-05-23T00:21:02.470Z,76.02
2023-05-23T00:22:02.286Z,76.02
2023-05-23T00:23:02.217Z,75.51
2023-05-23T00:24:02.300Z,75.82
2023-05-23T00:25:02.356Z,76.62
2023-05-23T00:26:02.213Z,76.58
2023-05-23T00:27:02.260Z,75.68
2023-05-23T00:28:02.223Z,75.78
2023-05-23T00:29:02.164Z,76.28
2023-05-23T00:30:02.229Z,75.68
2023-05-23T00:31:02.215Z,75.68
2023-05-23T00:32:02.148Z,76.08
2023-05-23T00:33:02.191Z,75.88
2023-05-23T00:34:02.113Z,75.58
2023-05-23T00:35:02.139Z,75.58
2023-05-23T00:36:02.073Z,75.48
2023-05-23T00:37:02.144Z,75.58
2023-05-23T00:38:02.189Z,75.68
2023-05-23T00:39:02.104Z,75.38
2023-05-23T00:40:02.113Z,75.51
2023-05-23T00:41:02.077Z,75.51
2023-05-23T00:42:02.017Z,75.71
2023-05-23T00:43:02.102Z,75.42
2023-05-23T00:44:02.028Z,75.82
2023-05-23T00:45:02.048Z,75.71
2023-05-23T00:46:02.046Z,75.51
2023-05-23T00:47:02.076Z,75.82
2023-05-23T00:48:02.042Z,75.62
2023-05-23T00:49:02.055Z,76.02
2023-05-23T00:50:01.960Z,76.02
2023-05-23T00:51:01.934Z,75.51
2023-05-23T00:52:01.945Z,75.71
2023-05-23T00:53:01.947Z,75.92
2023-05-23T00:54:02.093Z,75.92
2023-05-23T00:55:01.920Z,76.52
2023-05-23T00:56:01.883Z,76.42
2023-05-23T00:57:01.968Z,76.21
2023-05-23T00:58:01.857Z,76.72
2023-05-23T00:59:01.857Z,75.62
2023-05-23T01:00:01.857Z,76.12
2023-05-23T01:01:01.946Z,77.42
2023-05-23T01:02:01.878Z,76.82
2023-05-23T01:03:02.002Z,76.21
2023-05-23T01:04:01.877Z,76.62
2023-05-23T01:05:01.816Z,76.52
2023-05-23T01:06:01.749Z,76.12
2023-05-23T01:07:01.836Z,76.56
2023-05-23T01:08:01.745Z,76.35
2023-05-23T01:09:01.795Z,77.76
2023-05-23T01:10:01.731Z,77.56
2023-05-23T01:11:01.733Z,77.56
2023-05-23T01:12:01.715Z,76.86
2023-05-23T01:13:01.742Z,76.76
2023-05-23T01:14:01.852Z,77.56
2023-05-23T01:15:01.679Z,77.76
2023-05-23T01:16:03.009Z,77.56
2023-05-23T01:17:01.695Z,77.46
2023-05-23T01:18:01.649Z,77.06
2023-05-23T01:19:01.646Z,78.06
2023-05-23T01:20:01.619Z,77.16
2023-05-23T01:21:01.691Z,77.16
2023-05-23T01:22:01.612Z,76.65
2023-05-23T01:23:01.663Z,77.16
2023-05-23T01:24:01.599Z,77.16
2023-05-23T01:25:01.604Z,77.56
2023-05-23T01:26:01.576Z,77.06
2023-05-23T01:27:01.618Z,76.56
2023-05-23T01:28:01.554Z,77.56
2023-05-23T01:29:01.570Z,76.86
2023-05-23T01:30:01.495Z,77.56
2023-05-23T01:31:01.515Z,77.86
2023-05-23T01:32:01.666Z,78.27
2023-05-23T01:33:01.528Z,78.46
2023-05-23T01:34:01.481Z,77.26
2023-05-23T01:35:01.501Z,77.96
2023-05-23T01:36:01.418Z,78.66
2023-05-23T01:37:01.511Z,78.27
2023-05-23T01:38:01.432Z,77.50
2023-05-23T01:39:01.443Z,77.39
2023-05-23T01:40:01.442Z,78.00
2023-05-23T01:41:01.409Z,78.40
2023-05-23T01:42:01.371Z,79.61
2023-05-23T01:43:01.683Z,77.70
2023-05-23T01:44:01.398Z,78.00
2023-05-23T01:45:01.388Z,78.20
2023-05-23T01:46:01.423Z,78.80
2023-05-23T01:47:01.402Z,77.90
2023-05-23T01:48:01.383Z,79.30
2023-05-23T01:49:01.324Z,79.14
2023-05-23T01:50:01.316Z,79.44
2023-05-23T01:51:01.313Z,78.03
2023-05-23T01:52:01.350Z,78.14
2023-05-23T01:53:01.425Z,78.94
2023-05-23T01:54:01.291Z,78.84
2023-05-23T01:55:01.295Z,78.64
2023-05-23T01:56:01.267Z,78.94
2023-05-23T01:57:01.221Z,78.78
2023-05-23T01:58:01.228Z,78.88
2023-05-23T01:59:01.226Z,79.18
2023-05-23T02:00:01.241Z,79.48
2023-05-23T02:01:01.282Z,79.48
2023-05-23T02:02:01.209Z,79.68
2023-05-23T02:03:01.330Z,79.48
2023-05-23T02:04:01.174Z,80.99
2023-05-23T02:05:01.153Z,79.88
2023-05-23T02:06:01.137Z,80.12
2023-05-23T02:07:01.172Z,80.32
2023-05-23T02:08:01.113Z,79.92
2023-05-23T02:09:01.384Z,80.12
2023-05-23T02:10:01.083Z,80.73
2023-05-23T02:11:01.106Z,82.04
2023-05-23T02:12:01.113Z,80.22
2023-05-23T02:13:01.052Z,81.63
2023-05-23T02:14:01.067Z,80.63
2023-05-23T02:15:01.047Z,81.33
2023-05-23T02:16:01.022Z,80.52
2023-05-23T02:17:01.197Z,80.02
2023-05-23T02:18:01.129Z,80.12
2023-05-23T02:19:01.019Z,80.73
2023-05-23T02:20:00.978Z,80.79
2023-05-23T02:21:01.016Z,80.89
2023-05-23T02:22:00.981Z,80.63
2023-05-23T02:23:00.968Z,80.43
2023-05-23T02:24:00.986Z,80.22
2023-05-23T02:25:00.942Z,80.32
2023-05-23T02:26:01.029Z,79.62
2023-05-23T02:27:00.939Z,79.62
2023-05-23T02:28:00.901Z,79.52
2023-05-23T02:29:01.163Z,79.02
2023-05-23T02:30:00.953Z,79.62
2023-05-23T02:31:00.983Z,79.72
2023-05-23T02:32:00.864Z,79.52
2023-05-23T02:33:01.037Z,79.92
2023-05-23T02:34:00.850Z,79.42
2023-05-23T02:35:00.845Z,80.16
2023-05-23T02:36:00.807Z,80.36
2023-05-23T02:37:00.789Z,79.86
2023-05-23T02:38:00.900Z,80.06
2023-05-23T02:39:00.754Z,79.86
2023-05-23T02:40:00.794Z,80.06
2023-05-23T02:41:00.889Z,79.66
2023-05-23T02:42:00.733Z,80.87
2023-05-23T02:43:00.779Z,80.06
2023-05-23T02:44:00.751Z,80.06
2023-05-23T02:45:00.728Z,80.06
2023-05-23T02:46:00.734Z,79.80
2023-05-23T02:47:00.741Z,79.60
2023-05-23T02:48:00.863Z,79.60
2023-05-23T02:49:00.690Z,80.00
2023-05-23T02:50:00.604Z,80.70
2023-05-23T02:51:01.164Z,79.80
2023-05-23T02:52:00.653Z,79.09
2023-05-23T02:53:00.588Z,79.69
2023-05-23T02:54:00.717Z,78.79
2023-05-23T02:55:00.600Z,78.69
2023-05-23T02:56:00.527Z,79.60
2023-05-23T02:57:00.560Z,78.08
2023-05-23T02:58:00.521Z,80.30
2023-05-23T02:59:00.530Z,79.29
2023-05-23T03:00:00.628Z,79.69
2023-05-23T03:01:00.484Z,77.38
2023-05-23T03:02:00.586Z,77.48
2023-05-23T03:03:00.497Z,76.67
2023-05-23T03:04:00.701Z,77.51
2023-05-23T03:05:00.625Z,77.72
2023-05-23T03:06:00.597Z,77.21
2023-05-23T03:07:00.562Z,77.01
2023-05-23T03:08:00.669Z,75.80
2023-05-23T03:09:00.516Z,76.10
2023-05-23T03:10:00.499Z,75.20
2023-05-23T03:11:00.502Z,76.31
2023-05-23T03:12:00.497Z,75.30
2023-05-23T03:13:00.487Z,74.49
2023-05-23T03:14:00.547Z,74.99
2023-05-23T03:15:00.512Z,75.10
2023-05-23T03:16:00.560Z,75.20
2023-05-23T03:17:00.472Z,74.69
2023-05-23T03:18:00.470Z,74.69
2023-05-23T03:19:00.479Z,75.80
2023-05-23T03:20:00.373Z,75.50
2023-05-23T03:21:00.376Z,75.40
2023-05-23T03:22:00.429Z,74.79
2023-05-23T03:23:00.373Z,74.79
2023-05-23T03:24:00.462Z,74.79
2023-05-23T03:25:00.362Z,74.59
2023-05-23T03:26:00.386Z,74.49
2023-05-23T03:27:00.324Z,74.69
2023-05-23T03:28:00.346Z,74.49
2023-05-23T03:29:00.345Z,74.63
2023-05-23T03:30:00.307Z,75.03
2023-05-23T03:31:00.400Z,73.52
2023-05-23T03:32:00.391Z,73.42
2023-05-23T03:33:00.317Z,73.11
2023-05-23T03:34:00.330Z,73.62
2023-05-23T03:35:00.256Z,73.32
2023-05-23T03:36:00.278Z,73.11
2023-05-23T03:37:00.264Z,73.11
2023-05-23T03:38:00.209Z,73.01
2023-05-23T03:39:00.211Z,72.85
2023-05-23T03:40:00.256Z,73.85
2023-05-23T03:41:00.182Z,73.85
2023-05-23T03:42:00.189Z,74.26
2023-05-23T03:43:00.164Z,73.75
2023-05-23T03:44:00.185Z,74.36
2023-05-23T03:45:00.163Z,73.45
2023-05-23T03:46:00.199Z,73.55
2023-05-23T03:47:00.221Z,73.45
2023-05-23T03:48:00.223Z,73.85
2023-05-23T03:49:00.141Z,73.55
2023-05-23T03:50:00.101Z,73.45
2023-05-23T03:51:00.064Z,73.55
2023-05-23T03:52:00.184Z,73.35
2023-05-23T03:53:00.070Z,73.15
2023-05-23T03:54:00.063Z,73.55
2023-05-23T03:55:00.106Z,73.15
2023-05-23T03:56:00.062Z,73.85
2023-05-23T03:56:59.985Z,73.65
2023-05-23T03:58:00.117Z,73.15
2023-05-23T03:59:00.042Z,73.35
2023-05-23T03:59:59.966Z,73.28
2023-05-23T04:01:01.874Z,73.28
2023-05-23T04:01:59.965Z,73.58
2023-05-23T04:03:00.154Z,73.18
2023-05-23T04:04:00.067Z,73.49
2023-05-23T04:04:59.906Z,73.69
2023-05-23T04:05:59.922Z,73.69
2023-05-23T04:06:59.959Z,73.58
2023-05-23T04:07:59.930Z,73.79
2023-05-23T04:08:59.883Z,73.89
2023-05-23T04:09:59.861Z,74.09
2023-05-23T04:10:59.992Z,74.49
2023-05-23T04:11:59.919Z,74.19
2023-05-23T04:12:59.927Z,74.49
2023-05-23T04:13:59.805Z,74.90
2023-05-23T04:14:59.897Z,74.90
2023-05-23T04:15:59.898Z,74.80
2023-05-23T04:16:59.913Z,75.60
2023-05-23T04:17:59.916Z,75.71
2023-05-23T04:18:59.844Z,74.29
2023-05-23T04:19:59.811Z,75.04
2023-05-23T04:20:59.860Z,75.13
2023-05-23T04:21:59.632Z,74.73
2023-05-23T04:22:59.992Z,74.84
2023-05-23T04:23:59.674Z,75.04
2023-05-23T04:24:59.649Z,75.13
2023-05-23T04:25:59.572Z,74.33
2023-05-23T04:26:59.561Z,74.22
2023-05-23T04:27:59.668Z,74.84
2023-05-23T04:28:59.565Z,74.22
2023-05-23T04:29:59.557Z,74.33
2023-05-23T04:30:59.598Z,74.02
2023-05-23T04:31:59.546Z,74.22
2023-05-23T04:32:59.594Z,74.73
2023-05-23T04:33:59.512Z,75.24
2023-05-23T04:34:59.476Z,74.43
2023-05-23T04:35:59.498Z,75.24
2023-05-23T04:36:59.441Z,74.22
2023-05-23T04:37:59.444Z,75.04
2023-05-23T04:38:59.512Z,74.33
2023-05-23T04:39:59.429Z,74.73
2023-05-23T04:40:59.437Z,73.93
2023-05-23T04:41:59.414Z,73.82
2023-05-23T04:42:59.412Z,73.82
2023-05-23T04:43:59.412Z,73.93
2023-05-23T04:44:59.366Z,73.52
2023-05-23T04:45:59.411Z,72.61
2023-05-23T04:46:59.422Z,72.71
2023-05-23T04:47:59.414Z,73.02
2023-05-23T04:48:59.354Z,73.11
2023-05-23T04:49:59.324Z,73.32
2023-05-23T04:50:59.377Z,72.81
2023-05-23T04:51:59.324Z,72.71
2023-05-23T04:52:59.280Z,72.11
2023-05-23T04:53:59.265Z,72.81
2023-05-23T04:54:59.242Z,72.31
2023-05-23T04:55:59.277Z,72.71
2023-05-23T04:56:59.324Z,72.11
2023-05-23T04:57:59.249Z,72.00
2023-05-23T04:58:59.219Z,71.91
2023-05-23T04:59:59.407Z,71.40
2023-05-23T05:00:59.377Z,71.60
2023-05-23T05:01:59.231Z,72.11
2023-05-23T05:02:59.237Z,71.80
2023-05-23T05:03:59.197Z,71.60
2023-05-23T05:04:59.371Z,71.60
2023-05-23T05:05:59.185Z,71.60
2023-05-23T05:06:59.199Z,72.11
2023-05-23T05:07:59.158Z,71.40
2023-05-23T05:08:59.093Z,73.22
2023-05-23T05:10:01.048Z,72.21
2023-05-23T05:10:59.087Z,71.10
2023-05-23T05:11:59.119Z,71.60
2023-05-23T05:12:59.092Z,71.10
2023-05-23T05:13:59.063Z,71.00
2023-05-23T05:14:59.027Z,70.89
2023-05-23T05:15:59.056Z,71.91
2023-05-23T05:16:59.031Z,71.30
2023-05-23T05:17:59.075Z,71.60
2023-05-23T05:18:59.079Z,71.00
2023-05-23T05:19:58.986Z,71.60
2023-05-23T05:20:59.114Z,70.39
2023-05-23T05:21:58.996Z,71.00
2023-05-23T05:22:58.993Z,70.49
2023-05-23T05:23:58.933Z,70.79
2023-05-23T05:24:58.950Z,70.39
2023-05-23T05:25:58.949Z,70.89
2023-05-23T05:26:58.909Z,71.30
2023-05-23T05:27:58.938Z,70.79
2023-05-23T05:28:58.889Z,71.50
2023-05-23T05:29:58.875Z,71.00
2023-05-23T05:30:58.914Z,70.29
2023-05-23T05:31:58.866Z,70.19
2023-05-23T05:32:58.872Z,70.29
2023-05-23T05:33:58.840Z,70.59
2023-05-23T05:34:58.844Z,70.59
2023-05-23T05:35:58.829Z,70.49
2023-05-23T05:36:58.820Z,69.89
2023-05-23T05:37:58.786Z,69.48
2023-05-23T05:38:58.810Z,69.89
2023-05-23T05:39:58.785Z,69.89
2023-05-23T05:40:58.797Z,69.58
2023-05-23T05:41:58.776Z,69.78
2023-05-23T05:42:58.779Z,69.58
2023-05-23T05:43:58.729Z,69.68
2023-05-23T05:44:58.778Z,70.19
2023-05-23T05:45:58.779Z,70.09
2023-05-23T05:46:58.700Z,70.76
2023-05-23T05:47:58.758Z,70.06
2023-05-23T05:48:58.690Z,68.74
2023-05-23T05:49:58.686Z,68.64
2023-05-23T05:50:58.735Z,68.24
2023-05-23T05:51:58.651Z,68.13
2023-05-23T05:52:58.636Z,68.64
2023-05-23T05:53:58.624Z,68.54
2023-05-23T05:54:58.672Z,68.04
2023-05-23T05:55:58.605Z,68.44
2023-05-23T05:56:58.590Z,68.44
2023-05-23T05:57:58.618Z,69.24
2023-05-23T05:58:58.601Z,69.55
2023-05-23T05:59:58.582Z,68.95
2023-05-23T06:00:58.563Z,67.90
2023-05-23T06:01:58.538Z,67.50
2023-05-23T06:02:58.611Z,67.70
2023-05-23T06:03:58.775Z,68.61
2023-05-23T06:04:58.599Z,68.41
2023-05-23T06:05:58.543Z,68.71
2023-05-23T06:06:58.523Z,68.81
2023-05-23T06:07:58.543Z,69.01
2023-05-23T06:08:58.475Z,68.10
2023-05-23T06:09:58.473Z,68.81
2023-05-23T06:10:58.471Z,69.72
2023-05-23T06:11:58.488Z,69.72
2023-05-23T06:12:58.465Z,69.62
2023-05-23T06:13:58.436Z,67.90
2023-05-23T06:14:58.477Z,68.48
2023-05-23T06:15:58.534Z,68.57
2023-05-23T06:16:58.382Z,67.77
2023-05-23T06:17:58.454Z,68.27
2023-05-23T06:18:58.437Z,69.08
2023-05-23T06:19:58.360Z,69.08
2023-05-23T06:20:58.360Z,68.37
2023-05-23T06:21:58.333Z,69.59
2023-05-23T06:22:58.322Z,69.79
2023-05-23T06:23:58.319Z,67.97
2023-05-23T06:24:58.317Z,68.37
2023-05-23T06:25:58.288Z,68.98
2023-05-23T06:26:58.265Z,68.88
2023-05-23T06:27:58.319Z,68.98
2023-05-23T06:28:58.332Z,68.88
2023-05-23T06:29:58.251Z,70.09
2023-05-23T06:30:58.255Z,68.88
2023-05-23T06:31:58.294Z,69.28
2023-05-23T06:32:58.323Z,68.48
2023-05-23T06:33:58.215Z,67.87
2023-05-23T06:34:58.230Z,68.37
2023-05-23T06:35:58.179Z,68.37
2023-05-23T06:36:58.161Z,68.77
2023-05-23T06:37:58.195Z,68.37
2023-05-23T06:38:58.154Z,68.88
2023-05-23T06:39:58.155Z,68.98
2023-05-23T06:40:58.148Z,69.08
2023-05-23T06:41:58.167Z,69.89
2023-05-23T06:42:58.148Z,67.97
2023-05-23T06:43:58.099Z,69.48
2023-05-23T06:44:58.084Z,68.27
2023-05-23T06:45:58.126Z,71.10
2023-05-23T06:46:58.072Z,69.48
2023-05-23T06:47:58.064Z,68.48
2023-05-23T06:49:06.953Z,68.68
2023-05-23T06:49:58.074Z,69.05
2023-05-23T06:50:58.066Z,67.94
2023-05-23T06:51:58.047Z,69.55
2023-05-23T06:52:58.027Z,69.55
2023-05-23T06:53:58.004Z,71.87
2023-05-23T06:54:58.007Z,68.14
2023-05-23T06:55:57.964Z,68.51
2023-05-23T06:56:57.995Z,68.81
2023-05-23T06:57:57.973Z,69.72
2023-05-23T06:58:57.956Z,70.93
2023-05-23T06:59:57.925Z,68.58
2023-05-23T07:00:57.952Z,67.68
2023-05-23T07:01:57.932Z,66.56
2023-05-23T07:02:57.904Z,66.63
2023-05-23T07:03:57.891Z,67.14
2023-05-23T07:04:57.939Z,68.11
2023-05-23T07:05:57.892Z,67.51
2023-05-23T07:06:57.874Z,66.50
2023-05-23T07:07:57.831Z,65.77
2023-05-23T07:08:57.862Z,64.66
2023-05-23T07:09:57.812Z,65.36
2023-05-23T07:10:57.838Z,65.13
2023-05-23T07:11:57.837Z,68.25
2023-05-23T07:12:57.793Z,65.80
2023-05-23T07:13:57.796Z,63.49
2023-05-23T07:14:57.771Z,63.76
2023-05-23T07:15:57.897Z,62.36
2023-05-23T07:16:57.765Z,62.86
2023-05-23T07:17:57.759Z,61.72
2023-05-23T07:18:57.755Z,61.13
2023-05-23T07:19:57.740Z,63.20
2023-05-23T07:20:57.745Z,59.99
2023-05-23T07:21:57.705Z,59.56
2023-05-23T07:22:57.763Z,60.24
2023-05-23T07:23:57.669Z,59.13
2023-05-23T07:24:57.692Z,58.94
2023-05-23T07:26:02.423Z,58.33
2023-05-23T07:26:57.638Z,59.03
2023-05-23T07:27:57.662Z,58.83
2023-05-23T07:28:57.689Z,60.53
2023-05-23T07:29:57.629Z,60.01
2023-05-23T07:30:57.747Z,58.61
2023-05-23T07:31:57.590Z,58.70
2023-05-23T07:32:57.618Z,57.50
2023-05-23T07:33:59.418Z,57.30
2023-05-23T07:34:57.575Z,58.07
2023-05-23T07:35:57.556Z,58.37
2023-05-23T07:36:57.555Z,58.98
2023-05-23T07:37:57.526Z,57.98
2023-05-23T07:38:57.527Z,56.98
2023-05-23T07:39:57.642Z,56.65
2023-05-23T07:41:09.963Z,58.35
2023-05-23T07:41:57.484Z,57.55
2023-05-23T07:42:57.482Z,59.65
2023-05-23T07:43:57.491Z,57.24
2023-05-23T07:44:57.455Z,57.32
2023-05-23T07:45:57.458Z,58.72
2023-05-23T07:46:57.575Z,58.22
2023-05-23T07:47:57.558Z,58.42
2023-05-23T07:48:57.422Z,56.62
2023-05-23T07:49:57.366Z,57.32
2023-05-23T07:50:57.374Z,56.02
2023-05-23T07:51:57.400Z,56.32
2023-05-23T07:52:57.363Z,58.62
2023-05-23T07:53:57.401Z,56.35
2023-05-23T07:54:57.379Z,56.35
2023-05-23T07:55:57.332Z,56.24
2023-05-23T07:56:57.335Z,56.45
2023-05-23T07:57:57.334Z,56.74
2023-05-23T07:58:57.346Z,56.98
2023-05-23T07:59:57.386Z,56.77
2023-05-23T08:00:57.284Z,56.67
2023-05-23T08:01:57.324Z,56.98
2023-05-23T08:02:57.345Z,57.05
2023-05-23T08:03:57.269Z,58.35
2023-05-23T08:04:57.259Z,57.95
2023-05-23T08:05:57.243Z,57.05
2023-05-23T08:07:57.185Z,57.32
2023-05-23T08:08:57.191Z,59.12
2023-05-23T08:09:57.181Z,57.50
2023-05-23T08:10:57.168Z,56.89
2023-05-23T08:11:57.152Z,56.29
2023-05-23T08:12:57.166Z,56.57
2023-05-23T08:13:58.447Z,55.64
2023-05-23T08:14:57.144Z,56.46
2023-05-23T08:15:57.154Z,57.26
2023-05-23T08:16:57.368Z,55.97
2023-05-23T08:17:57.450Z,55.77
2023-05-23T08:18:57.163Z,54.67
2023-05-23T08:19:57.123Z,55.07
2023-05-23T08:20:57.180Z,54.77
2023-05-23T08:21:57.060Z,54.47
2023-05-23T08:22:57.069Z,55.17
2023-05-23T08:23:57.065Z,55.27
2023-05-23T08:24:57.032Z,55.66
2023-05-23T08:25:57.015Z,55.97
2023-05-23T08:26:57.046Z,56.07
2023-05-23T08:27:57.062Z,55.84
2023-05-23T08:28:56.980Z,55.44
2023-05-23T08:29:57.062Z,55.81
2023-05-23T08:30:56.957Z,54.09
2023-05-23T08:31:57.041Z,52.89
2023-05-23T08:32:57.052Z,52.76
2023-05-23T08:33:56.928Z,52.79
2023-05-23T08:34:56.934Z,52.97
2023-05-23T08:35:56.897Z,53.47
2023-05-23T08:36:56.877Z,54.46
2023-05-23T08:37:56.884Z,53.04
2023-05-23T08:38:56.876Z,52.74
2023-05-23T08:39:56.885Z,52.62
2023-05-23T08:40:56.883Z,52.51
2023-05-23T08:41:56.907Z,53.11
2023-05-23T08:42:56.849Z,51.03
2023-05-23T08:43:56.862Z,52.62
2023-05-23T08:44:56.870Z,51.40
2023-05-23T08:45:56.968Z,50.90
2023-05-23T08:46:56.837Z,51.50
2023-05-23T08:47:56.832Z,51.87
2023-05-23T08:48:56.824Z,50.87
2023-05-23T08:49:56.787Z,49.08
2023-05-23T08:50:56.754Z,49.66
2023-05-23T08:51:56.759Z,49.76
2023-05-23T08:52:56.804Z,50.93
2023-05-23T08:53:57.489Z,51.22
2023-05-23T08:54:56.753Z,50.60
2023-05-23T08:55:56.681Z,50.10
2023-05-23T08:56:56.718Z,48.79
2023-05-23T08:57:56.707Z,47.47
2023-05-23T08:58:56.737Z,47.70
2023-05-23T08:59:56.665Z,48.39
2023-05-23T09:00:56.666Z,49.58
2023-05-23T09:01:56.780Z,49.68
2023-05-23T09:02:56.667Z,48.52
2023-05-23T09:03:56.635Z,48.91
2023-05-23T09:04:56.642Z,50.01
2023-05-23T09:05:56.727Z,48.34
2023-05-23T09:06:56.596Z,48.46
2023-05-23T09:07:56.567Z,48.58
2023-05-23T09:08:56.546Z,48.61
2023-05-23T09:09:56.600Z,49.33
2023-05-23T09:10:56.554Z,49.43
2023-05-23T09:11:56.548Z,50.05
2023-05-23T09:12:56.527Z,49.98
2023-05-23T09:13:56.499Z,51.67
2023-05-23T09:14:56.501Z,52.19
2023-05-23T09:15:56.526Z,51.70
2023-05-23T09:16:56.505Z,51.20
2023-05-23T09:17:56.515Z,51.62
2023-05-23T09:18:56.535Z,51.92
2023-05-23T09:19:56.465Z,53.04
2023-05-23T09:20:56.436Z,52.34
2023-05-23T09:21:56.445Z,52.25
2023-05-23T09:22:56.435Z,52.84
2023-05-23T09:23:56.432Z,52.55
2023-05-23T09:24:56.411Z,52.39
2023-05-23T09:25:56.399Z,52.09
2023-05-23T09:26:56.355Z,51.17
2023-05-23T09:27:56.352Z,51.97
2023-05-23T09:28:56.408Z,51.77
2023-05-23T09:29:56.355Z,51.87
2023-05-23T09:30:56.374Z,51.27
2023-05-23T09:31:56.375Z,51.47
2023-05-23T09:32:56.391Z,51.87
2023-05-23T09:33:56.303Z,51.77
2023-05-23T09:34:56.371Z,52.47
2023-05-23T09:35:56.333Z,52.76
2023-05-23T09:36:56.255Z,52.07
2023-05-23T09:37:56.256Z,51.67
2023-05-23T09:38:56.237Z,51.17
2023-05-23T09:39:56.259Z,51.77
2023-05-23T09:40:56.249Z,52.07
2023-05-23T09:41:56.240Z,51.47
2023-05-23T09:42:56.208Z,52.47
2023-05-23T09:43:56.215Z,51.27
2023-05-23T09:44:56.188Z,51.37
2023-05-23T09:45:56.163Z,50.87
2023-05-23T09:46:56.217Z,50.87
2023-05-23T09:47:56.166Z,51.10
2023-05-23T09:48:56.160Z,51.20
2023-05-23T09:49:56.160Z,51.59
2023-05-23T09:50:56.156Z,51.50
2023-05-23T09:51:56.117Z,51.40
2023-05-23T09:52:56.098Z,51.42
2023-05-23T09:53:56.088Z,51.72
2023-05-23T09:54:56.081Z,52.69
2023-05-23T09:55:56.059Z,53.69
2023-05-23T09:56:56.185Z,53.49
2023-05-23T09:57:56.221Z,52.17
2023-05-23T09:58:56.132Z,51.87
2023-05-23T09:59:56.032Z,51.57
2023-05-23T10:00:56.085Z,51.35
2023-05-23T10:01:56.012Z,50.45
2023-05-23T10:02:56.181Z,50.35
2023-05-23T10:03:58.779Z,50.35
2023-05-23T10:04:56.013Z,50.05
2023-05-23T10:05:55.953Z,50.15
2023-05-23T10:06:55.943Z,51.27
2023-05-23T10:07:55.944Z,50.97
2023-05-23T10:08:55.975Z,51.77
2023-05-23T10:09:58.218Z,52.49
2023-05-23T10:10:56.020Z,51.70
2023-05-23T10:11:55.898Z,52.32
2023-05-23T10:12:55.898Z,53.12
2023-05-23T10:13:55.884Z,52.82
2023-05-23T10:14:55.930Z,52.74
2023-05-23T10:15:56.635Z,52.74
2023-05-23T10:16:55.910Z,52.67
2023-05-23T10:17:55.932Z,52.97
2023-05-23T10:18:55.869Z,53.09
2023-05-23T10:19:55.820Z,52.89
2023-05-23T10:20:55.833Z,53.59
2023-05-23T10:21:55.836Z,53.49
2023-05-23T10:22:55.801Z,53.99
2023-05-23T10:23:55.793Z,53.99
2023-05-23T10:24:55.804Z,53.89
2023-05-23T10:25:55.877Z,53.89
2023-05-23T10:26:55.768Z,53.99
2023-05-23T10:27:55.833Z,54.10
2023-05-23T10:28:55.821Z,53.89
2023-05-23T10:29:55.743Z,53.67
2023-05-23T10:30:55.732Z,53.77
2023-05-23T10:31:55.705Z,53.27
2023-05-23T10:32:55.748Z,53.97
2023-05-23T10:33:55.877Z,54.04
2023-05-23T10:34:55.679Z,53.61
2023-05-23T10:35:55.708Z,52.89
2023-05-23T10:36:55.636Z,53.17
2023-05-23T10:37:55.717Z,52.64
2023-05-23T10:38:55.628Z,51.45
2023-05-23T10:39:55.638Z,50.73
2023-05-23T10:40:55.615Z,50.23
2023-05-23T10:41:55.628Z,50.10
2023-05-23T10:42:55.749Z,49.90
2023-05-23T10:43:55.637Z,50.60
2023-05-23T10:44:55.550Z,51.62
2023-05-23T10:45:55.681Z,50.73
2023-05-23T10:46:55.601Z,52.62
2023-05-23T10:47:55.533Z,50.74
2023-05-23T10:48:55.556Z,51.75
2023-05-23T10:49:55.510Z,51.47
2023-05-23T10:50:55.500Z,51.87
2023-05-23T10:51:55.610Z,51.87
2023-05-23T10:52:55.675Z,51.77
2023-05-23T10:53:55.477Z,53.09
2023-05-23T10:54:55.476Z,53.09
2023-05-23T10:55:55.438Z,52.00
2023-05-23T10:56:55.538Z,52.62
2023-05-23T10:57:55.416Z,52.42
2023-05-23T10:58:55.437Z,52.55
2023-05-23T10:59:55.495Z,52.84
2023-05-23T11:00:55.421Z,55.07
2023-05-23T11:01:55.428Z,54.06
2023-05-23T11:02:55.587Z,53.57
2023-05-23T11:03:56.197Z,54.19
2023-05-23T11:04:55.514Z,54.69
2023-05-23T11:05:55.364Z,54.92
2023-05-23T11:06:55.380Z,55.42
2023-05-23T11:07:55.308Z,55.62
2023-05-23T11:08:55.502Z,56.02
2023-05-23T11:09:55.306Z,56.32
2023-05-23T11:10:55.293Z,55.62
2023-05-23T11:11:55.395Z,56.12
2023-05-23T11:12:55.291Z,55.69
2023-05-23T11:13:55.297Z,55.99
2023-05-23T11:14:56.012Z,55.89
2023-05-23T11:15:55.452Z,55.29
2023-05-23T11:16:55.297Z,56.16
2023-05-23T11:17:55.269Z,54.86
2023-05-23T11:18:55.229Z,54.57
2023-05-23T11:19:55.287Z,54.97
2023-05-23T11:20:55.354Z,54.27
2023-05-23T11:21:55.209Z,55.07
2023-05-23T11:22:55.207Z,55.44
2023-05-23T11:23:55.245Z,53.94
2023-05-23T11:24:55.159Z,54.04
2023-05-23T11:25:55.130Z,55.34
2023-05-23T11:26:55.185Z,54.02
2023-05-23T11:27:55.145Z,54.52
2023-05-23T11:28:55.101Z,55.51
2023-05-23T11:29:55.110Z,55.62
2023-05-23T11:30:55.091Z,53.99
2023-05-23T11:31:55.078Z,53.09
2023-05-23T11:32:55.105Z,53.09
2023-05-23T11:33:55.068Z,52.69
2023-05-23T11:34:55.027Z,53.69
2023-05-23T11:35:55.082Z,53.19
2023-05-23T11:36:55.041Z,53.29
2023-05-23T11:37:55.130Z,54.79
2023-05-23T11:38:54.984Z,54.86
2023-05-23T11:39:55.041Z,53.66
2023-05-23T11:40:54.975Z,52.87
2023-05-23T11:41:55.035Z,54.66
2023-05-23T11:42:55.020Z,53.66
2023-05-23T11:43:54.999Z,52.17
2023-05-23T11:44:55.010Z,52.97
2023-05-23T11:45:55.023Z,52.27
2023-05-23T11:46:54.885Z,51.95
2023-05-23T11:47:55.034Z,53.74
2023-05-23T11:48:55.175Z,54.04
2023-05-23T11:49:54.887Z,51.75
2023-05-23T11:50:54.994Z,51.45
2023-05-23T11:51:54.868Z,51.62
2023-05-23T11:52:54.904Z,51.42
2023-05-23T11:53:54.862Z,50.52
2023-05-23T11:54:56.736Z,49.65
2023-05-23T11:55:54.847Z,51.35
2023-05-23T11:56:54.861Z,50.23
2023-05-23T11:57:54.827Z,49.53
2023-05-23T11:58:54.875Z,50.92
2023-05-23T11:59:54.766Z,52.22
2023-05-23T12:00:55.446Z,49.70
2023-05-23T12:01:54.771Z,50.40
2023-05-23T12:02:54.816Z,49.78
2023-05-23T12:03:54.825Z,49.28
2023-05-23T12:04:54.861Z,49.08
2023-05-23T12:05:54.792Z,48.98
2023-05-23T12:06:54.678Z,49.48
2023-05-23T12:07:54.686Z,50.18
2023-05-23T12:08:54.683Z,49.28
2023-05-23T12:09:54.905Z,49.28
2023-05-23T12:10:54.635Z,48.38
2023-05-23T12:11:54.933Z,48.68
2023-05-23T12:12:54.703Z,47.25
2023-05-23T12:13:54.618Z,49.43
2023-05-23T12:14:54.603Z,47.74
2023-05-23T12:15:54.595Z,48.41
2023-05-23T12:16:54.803Z,48.32
2023-05-23T12:17:54.603Z,47.72
2023-05-23T12:18:54.635Z,46.62
2023-05-23T12:19:54.598Z,48.04
2023-05-23T12:20:54.588Z,47.05
2023-05-23T12:21:54.519Z,48.24
2023-05-23T12:22:54.553Z,47.25
2023-05-23T12:23:54.514Z,48.94
2023-05-23T12:24:54.573Z,49.63
2023-05-23T12:25:54.492Z,49.33
2023-05-23T12:26:54.501Z,48.16
2023-05-23T12:27:54.488Z,46.27
2023-05-23T12:28:54.457Z,47.07
2023-05-23T12:29:54.447Z,46.89
2023-05-23T12:30:54.514Z,46.30
2023-05-23T12:31:54.463Z,48.11
2023-05-23T12:32:54.551Z,47.31
2023-05-23T12:33:54.396Z,46.81
2023-05-23T12:34:54.426Z,47.51
2023-05-23T12:35:54.482Z,47.31
2023-05-23T12:37:02.858Z,48.01
2023-05-23T12:37:54.431Z,48.61
2023-05-23T12:38:54.344Z,47.02
2023-05-23T12:39:54.493Z,47.79
2023-05-23T12:40:54.339Z,47.49
2023-05-23T12:41:54.322Z,47.29
2023-05-23T12:42:54.346Z,46.67
2023-05-23T12:43:54.389Z,46.25
2023-05-23T12:44:54.304Z,46.55
2023-05-23T12:45:54.336Z,46.62
2023-05-23T12:46:54.297Z,46.20
2023-05-23T12:47:54.595Z,46.31
2023-05-23T12:48:54.355Z,45.79
2023-05-23T12:49:54.359Z,44.99
2023-05-23T12:50:54.280Z,43.96
2023-05-23T12:51:54.221Z,43.71
2023-05-23T12:52:54.196Z,42.80